Sandia Park, NM (87047)

05:40 PM MDT del 02 Settembre 2014 (GMT -0600)
Mike in Sandia Knolls | Change Station
CLOSE
Current Station
Stazione meteo personale
Location: Sandia Park, NM
Altitudine: 6693 ft
Stazioni meteo nelle vicinanze

Alt. 6693 ft 35.17 °N, 106.31 °W | Updated 12 minutes ago

Sereno
Sereno
87.1 °F
Sembra 84 °F
N
3.0
Vento Variabile Vento da OSO
Gusts 7.0 mph

Oggi
Massima -- | Minima -- °F
--% Possibilità di precip.
Ieri
Massima -- | Minima -- °F
Precip. -- in
6:38 AM 7:30 PM
Primo quarto, 56% visible
Pressione 29.76 in
Visibilità 10.0 miglia
Nuvole Alcuni 9000 ft
Alcuni 12000 ft
Indice di calore 84 °F
Punto di rugiada 34 °F
Umidità 15%
Piovosità 0.00 in
Spessore del manto nevoso Non disponibile.
Raggi UV 3 fuori da 12
Polline 8.70 fuori da 12
Qualità dell'aria Non disponibile.
Flu Activity Non disponibile.
METAR KABQ 022252Z 27006KT 10SM FEW090 FEW120 33/00 A3004 RMK AO2 SLP077 FU FEW090 T03330000

More Conditions Fewer Conditions

Pressione 29.76 in
Visibilità 10.0 miglia
Nuvole Alcuni 9000 ft
Alcuni 12000 ft
Indice di calore 84 °F
Punto di rugiada 34 °F
Umidità 15%
Piovosità 0.00 in
Spessore del manto nevoso Non disponibile.
Raggi UV 3 fuori da 12
Polline 8.70 fuori da 12
Qualità dell'aria Non disponibile.
Flu Activity Non disponibile.
METAR KABQ 022252Z 27006KT 10SM FEW090 FEW120 33/00 A3004 RMK AO2 SLP077 FU FEW090 T03330000

More Conditions Fewer Conditions

10-Day Weather Forecast

Almanac

Astronomia

Sep. 02, 2014 Alba Tramonto
Ora attuale 06:38 MDT 19:30 MDT
Crepuscolo civile 06:12 MDT 19:56 MDT
Crepuscolo nautico 05:42 MDT 20:26 MDT
Crepuscolo astronomico 05:10 MDT 20:58 MDT
Luna 14:09 MDT Nessun tramonto lunare
Estensione della luce visibile 13h 43m
Lunghezza del giorno
12h 52m
Tomorrow will be 2m 7s shorter.
Primo quarto, 56% of the Moon is Illuminated
Oggi
Primo quarto
Set 8
Luna piena
Set 15
Ultimo quarto
Set 24
Nuovo
Ott 1
Primo quarto

Gli estremi di oggi

State Highs State Lows

Community

WunderPhotos

Upload Photos

1,749,799 foto caricate!

Nearby

Profondità neve

Stazione Profondità Altitudine
Santa Fe 0 in 11445 ft
Quemazon 0 in 9500 ft
Wesner Springs 1 in 11120 ft
Red River Pass #2 0 in 9850 ft
Sierra Blanca 0 in 10280 ft

Attività sismica

Città  Distanza Mag. Data & Ora
Trinidad, Colorado 151 miglia 2.7 04:20 MDT
2014-08-31
Minimo Magnitudo Mostrato è 2.5.

Temperature delle acque costiere

Località Temperatura
Nessun dato dalle stazioni

Stazioni meteo nelle vicinanze